createdAt,value
2019-04-10T00:01:41.089Z,5.30
2019-04-10T00:04:10.495Z,2.47
2019-04-10T00:06:39.506Z,3.03
2019-04-10T00:09:08.481Z,5.23
2019-04-10T00:11:36.759Z,4.13
2019-04-10T00:14:05.281Z,5.97
2019-04-10T00:16:33.402Z,5.07
2019-04-10T00:19:02.382Z,3.73
2019-04-10T00:21:31.337Z,1.93
2019-04-10T00:23:59.661Z,3.47
2019-04-10T00:26:27.941Z,2.43
2019-04-10T00:28:56.135Z,2.60
2019-04-10T00:31:24.487Z,3.70
2019-04-10T00:33:53.515Z,6.43
2019-04-10T00:36:21.890Z,4.97
2019-04-10T00:38:50.387Z,3.50
2019-04-10T00:41:19.704Z,2.97
2019-04-10T00:43:48.917Z,3.93
2019-04-10T00:46:17.844Z,4.67
2019-04-10T00:48:46.155Z,2.40
2019-04-10T00:51:15.194Z,4.17
2019-04-10T00:53:43.568Z,6.27
2019-04-10T00:56:12.463Z,4.47
2019-04-10T00:58:41.592Z,3.87
2019-04-10T01:01:09.777Z,3.67
2019-04-10T01:03:44.113Z,7.43
2019-04-10T01:06:13.684Z,3.00
2019-04-10T01:08:42.759Z,3.00
2019-04-10T01:11:11.768Z,2.87
2019-04-10T01:13:41.020Z,2.90
2019-04-10T01:16:09.513Z,3.17
2019-04-10T01:18:37.730Z,4.73
2019-04-10T01:21:06.176Z,3.67
2019-04-10T01:23:35.124Z,4.00
2019-04-10T01:26:03.637Z,3.73
2019-04-10T01:28:33.063Z,4.53
2019-04-10T01:31:02.501Z,3.03
2019-04-10T01:33:30.808Z,4.60
2019-04-10T01:35:59.207Z,3.63
2019-04-10T01:38:27.937Z,3.50
2019-04-10T01:40:56.248Z,4.60
2019-04-10T01:43:24.688Z,5.77
2019-04-10T01:45:53.658Z,3.73
2019-04-10T01:48:21.969Z,2.50
2019-04-10T01:50:50.753Z,3.63
2019-04-10T01:53:19.718Z,2.93
2019-04-10T01:55:49.227Z,4.90
2019-04-10T01:58:19.819Z,2.47
2019-04-10T02:00:52.839Z,2.50
2019-04-10T02:03:20.958Z,4.20
2019-04-10T02:05:49.487Z,2.57
2019-04-10T02:08:18.915Z,2.73
2019-04-10T02:10:48.179Z,4.05
2019-04-10T02:13:17.149Z,3.33
2019-04-10T02:15:46.092Z,4.87
2019-04-10T02:18:14.504Z,6.53
2019-04-10T02:20:43.152Z,2.57
2019-04-10T02:23:12.205Z,5.77
2019-04-10T02:25:41.144Z,3.17
2019-04-10T02:28:11.008Z,3.13
2019-04-10T02:30:41.342Z,2.60
2019-04-10T02:33:10.737Z,2.77
2019-04-10T02:35:40.073Z,7.53
2019-04-10T02:38:25.986Z,2.80
2019-04-10T02:40:39.238Z,4.10
2019-04-10T02:43:09.860Z,4.67
2019-04-10T02:45:40.362Z,3.53
2019-04-10T02:48:10.052Z,2.87
2019-04-10T02:50:40.321Z,3.92
2019-04-10T02:53:10.955Z,3.40
2019-04-10T02:55:40.842Z,3.37
2019-04-10T02:58:09.873Z,2.37
2019-04-10T03:00:38.478Z,2.07
2019-04-10T03:03:06.756Z,3.03
2019-04-10T03:05:35.388Z,5.27
2019-04-10T03:08:04.905Z,3.13
2019-04-10T03:10:40.751Z,3.20
2019-04-10T03:13:04.691Z,5.73
2019-04-10T03:15:33.849Z,1.87
2019-04-10T03:18:02.257Z,2.80
2019-04-10T03:20:30.824Z,2.07
2019-04-10T03:22:59.005Z,4.03
2019-04-10T03:25:27.429Z,4.93
2019-04-10T03:27:55.927Z,2.93
2019-04-10T03:30:24.731Z,3.23
2019-04-10T03:33:12.456Z,4.93
2019-04-10T03:35:47.113Z,4.73
2019-04-10T03:38:16.287Z,4.33
2019-04-10T03:40:44.597Z,2.77
2019-04-10T03:43:13.869Z,4.87
2019-04-10T03:45:42.739Z,3.37
2019-04-10T03:48:11.757Z,4.97
2019-04-10T03:50:40.071Z,2.30
2019-04-10T03:53:08.407Z,3.13
2019-04-10T03:55:36.889Z,2.53
2019-04-10T03:58:05.314Z,2.87
2019-04-10T04:00:34.251Z,2.67
2019-04-10T04:03:04.193Z,5.33
2019-04-10T04:05:32.860Z,3.97
2019-04-10T04:08:01.379Z,7.22
2019-04-10T04:10:30.773Z,4.77
2019-04-10T04:13:00.128Z,7.10
2019-04-10T04:15:28.863Z,5.83
2019-04-10T04:17:57.129Z,5.45
2019-04-10T04:20:25.307Z,6.72
2019-04-10T04:22:53.585Z,2.77
2019-04-10T04:25:21.979Z,4.83
2019-04-10T04:27:52.023Z,2.92
2019-04-10T04:30:20.489Z,6.83
2019-04-10T04:32:48.740Z,6.83
2019-04-10T04:35:17.545Z,2.70
2019-04-10T04:37:46.328Z,4.20
2019-04-10T04:40:14.630Z,3.30
2019-04-10T04:42:43.270Z,3.55
2019-04-10T04:45:12.681Z,3.20
2019-04-10T04:47:41.279Z,8.53
2019-04-10T04:50:10.115Z,2.85
2019-04-10T04:52:41.507Z,2.92
2019-04-10T04:55:10.077Z,4.83
2019-04-10T04:57:39.664Z,5.42
2019-04-10T05:00:11.049Z,3.43
2019-04-10T05:02:39.308Z,4.00
2019-04-10T05:05:07.464Z,2.70
2019-04-10T05:07:37.394Z,4.27
2019-04-10T05:10:07.177Z,5.25
2019-04-10T05:12:35.994Z,5.20
2019-04-10T05:15:06.673Z,3.05
2019-04-10T05:17:35.171Z,3.08
2019-04-10T05:20:04.950Z,4.97
2019-04-10T05:22:34.000Z,3.45
2019-04-10T05:25:02.999Z,4.80
2019-04-10T05:27:31.351Z,4.45
2019-04-10T05:29:59.998Z,5.27
2019-04-10T05:32:28.245Z,4.87
2019-04-10T05:34:56.401Z,3.75
2019-04-10T05:37:24.590Z,4.35
2019-04-10T05:39:55.229Z,6.87
2019-04-10T05:42:24.801Z,3.45
2019-04-10T05:44:53.616Z,5.07
2019-04-10T05:47:21.753Z,4.60
2019-04-10T05:49:50.126Z,5.00
2019-04-10T05:52:18.343Z,5.83
2019-04-10T05:54:47.293Z,3.97
2019-04-10T05:57:15.864Z,5.73
2019-04-10T05:59:44.108Z,4.70
2019-04-10T06:02:12.373Z,3.03
2019-04-10T06:04:41.226Z,3.50
2019-04-10T06:07:10.653Z,4.60
2019-04-10T06:09:42.546Z,5.63
2019-04-10T06:12:09.858Z,3.90
2019-04-10T06:14:38.146Z,4.73
2019-04-10T06:17:07.946Z,4.30
2019-04-10T06:19:36.661Z,4.10
2019-04-10T06:22:05.253Z,4.63
2019-04-10T06:24:33.610Z,5.07
2019-04-10T06:27:01.952Z,3.87
2019-04-10T06:29:30.891Z,3.90
2019-04-10T06:31:59.303Z,5.17
2019-04-10T06:34:27.600Z,5.47
2019-04-10T06:36:55.784Z,5.57
2019-04-10T06:39:24.783Z,3.67
2019-04-10T06:41:53.083Z,4.93
2019-04-10T06:44:21.818Z,4.47
2019-04-10T06:46:50.195Z,5.43
2019-04-10T06:49:18.332Z,4.17
2019-04-10T06:51:46.696Z,9.20
2019-04-10T06:54:14.977Z,4.00
2019-04-10T06:56:43.709Z,4.73
2019-04-10T06:59:12.258Z,7.77
2019-04-10T07:01:48.742Z,4.50
2019-04-10T07:04:11.472Z,4.33
2019-04-10T07:06:53.959Z,5.30
2019-04-10T07:09:15.839Z,6.17
2019-04-10T07:11:44.945Z,5.53
2019-04-10T07:14:14.265Z,4.60
2019-04-10T07:16:42.795Z,7.70
2019-04-10T07:19:12.853Z,7.63
2019-04-10T07:21:41.275Z,5.23
2019-04-10T07:24:12.172Z,5.80
2019-04-10T07:26:43.252Z,8.70
2019-04-10T07:29:10.955Z,7.27
2019-04-10T07:31:39.839Z,5.30
2019-04-10T07:34:08.841Z,7.47
2019-04-10T07:36:40.078Z,8.97
2019-04-10T07:39:07.728Z,7.40
2019-04-10T07:41:36.050Z,6.17
2019-04-10T07:44:05.798Z,5.10
2019-04-10T07:46:34.711Z,5.03
2019-04-10T07:49:03.036Z,7.17
2019-04-10T07:51:31.913Z,9.23
2019-04-10T07:54:00.158Z,5.87
2019-04-10T07:56:28.445Z,6.70
2019-04-10T07:58:56.655Z,7.67
2019-04-10T08:01:24.793Z,9.60
2019-04-10T08:03:53.986Z,6.00
2019-04-10T08:06:23.382Z,8.57
2019-04-10T08:08:51.925Z,8.57
2019-04-10T08:11:20.059Z,10.70
2019-04-10T08:13:49.222Z,8.63
2019-04-10T08:16:17.489Z,8.43
2019-04-10T08:18:45.797Z,8.13
2019-04-10T08:21:14.284Z,6.97
2019-04-10T08:23:42.853Z,6.83
2019-04-10T08:26:12.169Z,8.53
2019-04-10T08:28:41.272Z,10.70
2019-04-10T08:31:09.680Z,8.17
2019-04-10T08:33:38.590Z,6.60
2019-04-10T08:36:07.577Z,7.27
2019-04-10T08:38:35.755Z,7.77
2019-04-10T08:41:05.015Z,8.23
2019-04-10T08:43:34.102Z,9.80
2019-04-10T08:46:03.484Z,8.53
2019-04-10T08:48:32.987Z,7.87
2019-04-10T08:51:01.416Z,8.60
2019-04-10T08:53:30.575Z,7.73
2019-04-10T08:55:59.027Z,6.70
2019-04-10T08:58:27.368Z,6.10
2019-04-10T09:00:56.563Z,9.30
2019-04-10T09:03:24.998Z,6.67
2019-04-10T09:05:53.197Z,9.23
2019-04-10T09:08:21.465Z,7.00
2019-04-10T09:10:50.444Z,5.67
2019-04-10T09:13:20.066Z,8.77
2019-04-10T09:15:48.495Z,6.47
2019-04-10T09:18:16.889Z,6.17
2019-04-10T09:20:45.299Z,7.37
2019-04-10T09:23:23.433Z,5.90
2019-04-10T09:25:43.782Z,5.57
2019-04-10T09:28:12.454Z,4.67
2019-04-10T09:30:40.794Z,7.33
2019-04-10T09:33:21.266Z,6.47
2019-04-10T09:35:40.528Z,7.03
2019-04-10T09:38:08.849Z,7.67
2019-04-10T09:40:38.367Z,7.50
2019-04-10T09:43:07.306Z,8.00
2019-04-10T09:45:35.708Z,7.20
2019-04-10T09:48:04.328Z,6.33
2019-04-10T09:50:33.151Z,5.90
2019-04-10T09:53:02.106Z,5.07
2019-04-10T09:55:30.468Z,7.70
2019-04-10T09:58:00.031Z,5.90
2019-04-10T10:00:28.561Z,4.87
2019-04-10T10:02:56.725Z,4.10
2019-04-10T10:05:25.096Z,5.00
2019-04-10T10:07:55.762Z,6.30
2019-04-10T10:10:23.433Z,8.53
2019-04-10T10:12:52.604Z,6.03
2019-04-10T10:15:21.130Z,6.87
2019-04-10T10:17:49.326Z,4.90
2019-04-10T10:20:18.366Z,6.10
2019-04-10T10:22:47.475Z,5.67
2019-04-10T10:25:15.977Z,6.80
2019-04-10T10:27:44.760Z,7.07
2019-04-10T10:30:15.562Z,3.57
2019-04-10T10:32:44.125Z,6.10
2019-04-10T10:35:12.300Z,7.10
2019-04-10T10:37:40.992Z,3.87
2019-04-10T10:40:10.239Z,6.93
2019-04-10T10:42:39.627Z,5.83
2019-04-10T10:45:10.464Z,4.50
2019-04-10T10:47:40.171Z,8.13
2019-04-10T10:50:09.391Z,4.63
2019-04-10T10:52:37.633Z,7.03
2019-04-10T10:55:07.682Z,3.70
2019-04-10T10:57:36.055Z,4.37
2019-04-10T11:00:06.224Z,4.47
2019-04-10T11:02:35.794Z,3.60
2019-04-10T11:05:06.912Z,5.73
2019-04-10T11:07:35.282Z,6.57
2019-04-10T11:10:06.956Z,6.40
2019-04-10T11:12:35.760Z,4.57
2019-04-10T11:15:06.316Z,7.80
2019-04-10T11:17:35.665Z,5.43
2019-04-10T11:20:06.351Z,5.87
2019-04-10T11:22:35.524Z,5.20
2019-04-10T11:25:06.009Z,4.77
2019-04-10T11:27:35.574Z,4.70
2019-04-10T11:30:06.373Z,4.43
2019-04-10T11:32:36.523Z,3.70
2019-04-10T11:35:06.608Z,3.30
2019-04-10T11:37:43.421Z,5.70
2019-04-10T11:40:08.488Z,3.97
2019-04-10T11:42:37.308Z,3.73
2019-04-10T11:45:10.263Z,3.97
2019-04-10T11:47:39.127Z,4.20
2019-04-10T11:50:13.102Z,4.53
2019-04-10T11:52:45.257Z,3.93
2019-04-10T11:55:15.504Z,4.93
2019-04-10T11:57:42.130Z,3.33
2019-04-10T12:00:18.804Z,3.80
2019-04-10T12:02:45.866Z,2.63
2019-04-10T12:05:18.992Z,3.33
2019-04-10T12:12:45.908Z,7.03
2019-04-10T12:15:14.402Z,3.53
2019-04-10T12:17:43.177Z,4.57
2019-04-10T12:20:13.159Z,3.03
2019-04-10T12:22:41.620Z,5.57
2019-04-10T12:25:10.317Z,2.77
2019-04-10T12:27:39.057Z,3.80
2019-04-10T12:30:09.249Z,2.97
2019-04-10T12:32:38.897Z,3.60
2019-04-10T12:35:08.750Z,3.60
2019-04-10T12:37:37.169Z,2.63
2019-04-10T12:40:05.922Z,5.10
2019-04-10T12:42:34.584Z,3.10
2019-04-10T12:45:04.870Z,5.43
2019-04-10T12:47:34.232Z,3.37
2019-04-10T12:50:03.772Z,4.33
2019-04-10T12:52:32.404Z,5.17
2019-04-10T12:55:01.931Z,3.40
2019-04-10T12:57:30.753Z,5.23
2019-04-10T13:00:01.154Z,5.07
2019-04-10T13:02:30.287Z,7.40
2019-04-10T13:04:58.806Z,3.23
2019-04-10T13:07:27.615Z,5.13
2019-04-10T13:09:58.179Z,4.20
2019-04-10T13:12:26.433Z,3.27
2019-04-10T13:14:54.924Z,4.40
2019-04-10T13:17:23.201Z,2.90
2019-04-10T13:19:51.489Z,5.33
2019-04-10T13:22:20.236Z,3.73
2019-04-10T13:24:48.404Z,3.37
2019-04-10T13:27:16.795Z,3.50
2019-04-10T13:29:45.084Z,3.93
2019-04-10T13:32:13.890Z,3.70
2019-04-10T13:34:42.292Z,4.63
2019-04-10T13:37:10.448Z,2.60
2019-04-10T13:39:39.224Z,3.33
2019-04-10T13:42:07.653Z,3.47
2019-04-10T13:44:35.821Z,4.20
2019-04-10T13:47:04.990Z,4.23
2019-04-10T13:49:33.875Z,3.97
2019-04-10T13:52:02.018Z,3.50
2019-04-10T13:54:30.512Z,5.00
2019-04-10T13:56:58.801Z,3.07
2019-04-10T13:59:27.173Z,2.73
2019-04-10T14:01:56.387Z,3.37
2019-04-10T14:04:25.062Z,3.23
2019-04-10T14:06:53.655Z,5.43
2019-04-10T14:09:34.391Z,4.30
2019-04-10T14:11:51.931Z,4.87
2019-04-10T14:14:20.343Z,3.73
2019-04-10T14:16:48.894Z,3.00
2019-04-10T14:19:17.283Z,4.33
2019-04-10T14:21:45.490Z,4.20
2019-04-10T14:24:13.769Z,3.27
2019-04-10T14:27:00.470Z,4.50
2019-04-10T14:29:28.792Z,2.83
2019-04-10T14:32:03.621Z,3.40
2019-04-10T14:34:31.776Z,4.40
2019-04-10T14:37:00.889Z,2.87
2019-04-10T14:39:29.785Z,4.97
2019-04-10T14:41:58.222Z,5.17
2019-04-10T14:44:26.391Z,3.17
2019-04-10T14:46:54.638Z,5.07
2019-04-10T14:49:22.973Z,4.93
2019-04-10T14:51:51.226Z,4.33
2019-04-10T14:54:19.670Z,2.80
2019-04-10T14:56:48.447Z,3.47
2019-04-10T14:59:17.825Z,3.20
2019-04-10T15:01:46.308Z,2.70
2019-04-10T15:04:15.073Z,3.83
2019-04-10T15:06:43.809Z,3.08
2019-04-10T15:09:22.185Z,3.43
2019-04-10T15:11:49.199Z,2.53
2019-04-10T15:14:18.134Z,4.27
2019-04-10T15:16:53.462Z,3.20
2019-04-10T15:19:17.023Z,5.27
2019-04-10T15:21:45.258Z,2.73
2019-04-10T15:24:13.485Z,3.93
2019-04-10T15:26:41.711Z,2.60
2019-04-10T15:29:10.310Z,5.53
2019-04-10T15:31:39.681Z,2.30
2019-04-10T15:34:08.028Z,2.70
2019-04-10T15:36:36.216Z,2.07
2019-04-10T15:39:07.276Z,3.50
2019-04-10T15:41:35.560Z,3.13
2019-04-10T15:44:03.884Z,1.87
2019-04-10T15:46:33.113Z,2.03
2019-04-10T15:49:02.667Z,6.03
2019-04-10T15:51:32.146Z,2.73
2019-04-10T15:54:01.286Z,2.77
2019-04-10T15:56:29.883Z,3.50
2019-04-10T15:58:58.164Z,5.07
2019-04-10T16:01:28.153Z,3.23
2019-04-10T16:03:56.885Z,4.73
2019-04-10T16:06:25.255Z,3.37
2019-04-10T16:08:53.472Z,3.73
2019-04-10T16:11:56.820Z,2.87
2019-04-10T16:14:28.428Z,3.50
2019-04-10T16:17:22.254Z,3.73
2019-04-10T16:20:09.352Z,4.43
2019-04-10T16:22:44.755Z,2.40
2019-04-10T16:25:25.637Z,3.20
2019-04-10T16:27:53.920Z,2.93
2019-04-10T16:30:26.164Z,5.60
2019-04-10T16:32:54.472Z,4.60
2019-04-10T16:35:23.143Z,4.33
2019-04-10T16:37:51.615Z,2.77
2019-04-10T16:40:20.697Z,4.90
2019-04-10T16:42:49.164Z,3.83
2019-04-10T16:45:17.621Z,3.37
2019-04-10T16:47:46.306Z,2.57
2019-04-10T16:50:14.868Z,2.47
2019-04-10T16:52:43.154Z,5.13
2019-04-10T16:55:11.502Z,3.10
2019-04-10T16:57:39.844Z,3.53
2019-04-10T17:00:08.943Z,2.83
2019-04-10T17:02:37.330Z,3.40
2019-04-10T17:05:08.085Z,3.40
2019-04-10T17:07:36.576Z,3.17
2019-04-10T17:10:14.111Z,4.53
2019-04-10T17:12:40.138Z,4.33
2019-04-10T17:15:10.308Z,3.67
2019-04-10T17:17:39.668Z,4.10
2019-04-10T17:20:08.617Z,3.20
2019-04-10T17:22:43.549Z,5.23
2019-04-10T17:25:07.443Z,4.33
2019-04-10T17:27:35.637Z,5.03
2019-04-10T17:30:05.455Z,4.60
2019-04-10T17:32:33.804Z,3.93
2019-04-10T17:35:03.164Z,3.60
2019-04-10T17:37:31.877Z,4.13
2019-04-10T17:40:00.137Z,2.77
2019-04-10T17:42:28.406Z,3.70
2019-04-10T17:44:56.554Z,4.57
2019-04-10T17:47:25.024Z,3.23
2019-04-10T17:49:53.934Z,3.73
2019-04-10T17:52:27.141Z,3.17
2019-04-10T17:54:56.382Z,3.10
2019-04-10T17:57:34.489Z,7.60
2019-04-10T17:59:54.754Z,3.27
2019-04-10T18:02:23.462Z,5.50
2019-04-10T18:04:52.140Z,4.23
2019-04-10T18:07:21.712Z,4.37
2019-04-10T18:09:50.708Z,4.60
2019-04-10T18:12:19.608Z,3.60
2019-04-10T18:14:47.836Z,5.20
2019-04-10T18:17:16.516Z,4.17
2019-04-10T18:19:46.081Z,4.00
2019-04-10T18:22:14.448Z,5.17
2019-04-10T18:24:42.687Z,6.30
2019-04-10T18:27:12.132Z,6.17
2019-04-10T18:29:41.399Z,4.13
2019-04-10T18:32:09.880Z,7.07
2019-04-10T18:34:38.282Z,3.50
2019-04-10T18:37:08.112Z,5.77
2019-04-10T18:39:36.718Z,4.90
2019-04-10T18:42:05.660Z,5.80
2019-04-10T18:44:33.955Z,5.60
2019-04-10T18:47:03.253Z,3.90
2019-04-10T18:49:31.726Z,5.10
2019-04-10T18:52:00.524Z,7.13
2019-04-10T18:54:29.823Z,4.57
2019-04-10T18:56:58.142Z,4.63
2019-04-10T18:59:41.486Z,5.93
2019-04-10T19:02:45.328Z,5.13
2019-04-10T19:05:26.057Z,5.93
2019-04-10T19:07:54.502Z,4.87
2019-04-10T19:10:22.746Z,3.50
2019-04-10T19:12:50.971Z,4.67
2019-04-10T19:15:20.286Z,5.67
2019-04-10T19:17:48.911Z,4.57
2019-04-10T19:20:17.977Z,3.53
2019-04-10T19:22:46.469Z,3.30
2019-04-10T19:25:14.684Z,3.33
2019-04-10T19:27:42.965Z,4.13
2019-04-10T19:30:28.975Z,2.83
2019-04-10T19:32:57.447Z,3.47
2019-04-10T19:35:26.678Z,4.07
2019-04-10T19:37:56.664Z,3.47
2019-04-10T19:40:24.964Z,4.13
2019-04-10T19:42:53.442Z,3.97
2019-04-10T19:45:21.920Z,4.87
2019-04-10T19:47:50.685Z,6.47
2019-04-10T19:50:19.393Z,6.63
2019-04-10T19:52:48.666Z,5.53
2019-04-10T19:55:17.692Z,6.37
2019-04-10T19:57:46.018Z,4.83
2019-04-10T20:00:18.459Z,5.60
2019-04-10T20:02:46.890Z,7.57
2019-04-10T20:05:15.189Z,4.90
2019-04-10T20:07:43.387Z,5.43
2019-04-10T20:10:13.002Z,5.97
2019-04-10T20:12:42.514Z,5.43
2019-04-10T20:15:12.214Z,5.63
2019-04-10T20:17:40.459Z,4.70
2019-04-10T20:20:08.881Z,4.37
2019-04-10T20:22:37.115Z,3.20
2019-04-10T20:25:06.128Z,6.77
2019-04-10T20:27:34.534Z,4.80
2019-04-10T20:30:04.323Z,4.70
2019-04-10T20:32:32.908Z,5.57
2019-04-10T20:35:02.376Z,4.57
2019-04-10T20:37:31.126Z,4.43
2019-04-10T20:39:59.372Z,4.37
2019-04-10T20:42:27.564Z,3.93
2019-04-10T20:44:56.757Z,5.57
2019-04-10T20:47:27.378Z,8.10
2019-04-10T20:49:55.622Z,5.13
2019-04-10T20:52:23.891Z,5.07
2019-04-10T20:54:53.065Z,6.23
2019-04-10T20:57:23.477Z,7.70
2019-04-10T20:59:53.162Z,7.47
2019-04-10T21:02:22.314Z,5.53
2019-04-10T21:04:56.555Z,5.50
2019-04-10T21:07:21.354Z,5.23
2019-04-10T21:09:50.277Z,5.23
2019-04-10T21:16:13.448Z,6.33
2019-04-10T21:18:41.952Z,9.53
2019-04-10T21:21:10.342Z,6.20
2019-04-10T21:23:39.936Z,7.60
2019-04-10T21:26:08.218Z,5.37
2019-04-10T21:28:37.121Z,5.67
2019-04-10T21:31:25.475Z,4.27
2019-04-10T21:34:13.962Z,4.50
2019-04-10T21:36:43.426Z,5.63
2019-04-10T21:39:12.376Z,5.63
2019-04-10T21:41:41.189Z,10.13
2019-04-10T21:44:10.207Z,5.80
2019-04-10T21:46:40.753Z,5.50
2019-04-10T21:49:09.188Z,7.23
2019-04-10T21:51:37.520Z,5.23
2019-04-10T21:54:06.396Z,9.33
2019-04-10T21:56:37.068Z,6.50
2019-04-10T21:59:05.549Z,6.50
2019-04-10T22:01:34.637Z,7.47
2019-04-10T22:04:06.275Z,5.37
2019-04-10T22:06:54.273Z,6.37
2019-04-10T22:09:41.064Z,6.17
2019-04-10T22:12:28.583Z,6.63
2019-04-10T22:14:52.605Z,5.27
2019-04-10T22:17:21.278Z,7.60
2019-04-10T22:19:50.678Z,5.73
2019-04-10T22:22:18.970Z,7.03
2019-04-10T22:24:48.619Z,8.20
2019-04-10T22:27:17.116Z,5.70
2019-04-10T22:29:45.413Z,6.33
2019-04-10T22:32:14.103Z,6.33
2019-04-10T22:34:42.544Z,7.20
2019-04-10T22:37:12.039Z,7.80
2019-04-10T22:39:40.321Z,5.20
2019-04-10T22:42:08.610Z,7.87
2019-04-10T22:44:42.530Z,7.27
2019-04-10T22:47:07.821Z,4.93
2019-04-10T22:49:36.913Z,5.53
2019-04-10T22:52:05.396Z,7.60
2019-04-10T22:54:34.589Z,8.33
2019-04-10T22:57:02.977Z,9.53
2019-04-10T22:59:31.146Z,9.93
2019-04-10T23:02:07.331Z,6.83
2019-04-10T23:04:30.686Z,6.50
2019-04-10T23:06:59.799Z,8.73
2019-04-10T23:09:28.542Z,8.77
2019-04-10T23:11:56.811Z,7.20
2019-04-10T23:14:25.082Z,6.67
2019-04-10T23:16:53.199Z,9.30
2019-04-10T23:19:22.393Z,11.00
2019-04-10T23:21:51.037Z,7.43
2019-04-10T23:24:19.215Z,8.80
2019-04-10T23:26:47.435Z,8.70
2019-04-10T23:29:15.894Z,11.60
2019-04-10T23:31:44.176Z,9.90
2019-04-10T23:34:13.032Z,8.30
2019-04-10T23:36:42.331Z,7.53
2019-04-10T23:39:12.161Z,7.20
2019-04-10T23:41:40.397Z,11.17
2019-04-10T23:44:08.940Z,9.53
2019-04-10T23:46:37.239Z,8.73
2019-04-10T23:49:05.634Z,7.50
2019-04-10T23:51:34.831Z,11.43
2019-04-10T23:54:03.091Z,10.87
2019-04-10T23:56:31.965Z,10.30
2019-04-10T23:59:00.297Z,10.47
